Time;durP1;ratioP1;P1;durP2;ratioP2;P2;SDS_P1;SDS_P2;PMS_P1;PMS_P2;Temp;Humidity;BMP_temperature;BMP_pressure;BME280_temperature;BME280_humidity;BME280_pressure;Samples;Min_cycle;Max_cycle;Signal;HPM_P1;HPM_P2
2021/05/15 00:00:54;;;;;;;12.35;4.68;;;;;;;11.17;72.56;97999.38;5082431;28;20081;-62
2021/05/15 00:03:20;;;;;;;10.95;4.55;;;;;;;11.14;72.75;98004.59;5091250;28;20081;-62
2021/05/15 00:05:45;;;;;;;7.85;3.63;;;;;;;11.18;72.45;98000.22;5083908;28;20042;-62
2021/05/15 00:08:12;;;;;;;13.82;5.57;;;;;;;11.21;72.83;97990.69;5082763;28;20086;-62
2021/05/15 00:10:38;;;;;;;16.88;5.45;;;;;;;11.16;72.99;97992.56;5083749;28;20057;-62
2021/05/15 00:13:03;;;;;;;11.40;4.85;;;;;;;11.21;72.45;97997.53;5084683;28;20304;-62
2021/05/15 00:15:29;;;;;;;20.48;18.92;;;;;;;11.33;72.08;97999.75;5085396;28;20036;-63
2021/05/15 00:17:55;;;;;;;397.80;364.50;;;;;;;11.34;71.81;97993.72;5082848;28;20401;-60
2021/05/15 00:20:21;;;;;;;12.90;5.57;;;;;;;11.40;71.98;97991.78;5083570;28;20082;-60
2021/05/15 00:22:47;;;;;;;11.00;4.68;;;;;;;11.41;71.58;97982.38;5083706;28;20050;-61
2021/05/15 00:25:15;;;;;;;11.50;5.25;;;;;;;11.42;71.98;97989.16;5084115;28;20373;-60
2021/05/15 00:27:41;;;;;;;10.18;4.22;;;;;;;11.40;71.74;97988.38;5084198;28;20016;-60
2021/05/15 00:30:10;;;;;;;494.47;451.13;;;;;;;11.49;71.84;97998.34;5085400;28;20287;-60
2021/05/15 00:32:36;;;;;;;9.50;3.72;;;;;;;11.48;71.68;97995.81;5087123;28;20047;-60
2021/05/15 00:35:02;;;;;;;12.48;5.25;;;;;;;11.50;71.39;97997.44;5084407;28;20028;-61
2021/05/15 00:37:27;;;;;;;8.27;4.00;;;;;;;11.54;71.13;97996.50;5085586;28;20286;-61
2021/05/15 00:39:53;;;;;;;6.68;3.42;;;;;;;11.49;71.12;97992.38;5085007;28;20036;-61
2021/05/15 00:42:18;;;;;;;10.57;4.65;;;;;;;11.46;71.38;97994.16;5083501;28;20024;-61
2021/05/15 00:44:47;;;;;;;18.50;16.50;;;;;;;11.52;70.95;97990.53;5084797;28;20385;-61
2021/05/15 00:47:14;;;;;;;384.45;362.55;;;;;;;11.67;70.58;97979.75;5084166;28;20360;-61
2021/05/15 00:49:40;;;;;;;512.77;445.70;;;;;;;11.68;70.48;97984.00;5088109;28;20055;-61
2021/05/15 00:52:06;;;;;;;8.10;3.55;;;;;;;11.60;70.54;97988.56;5085257;28;20399;-60
2021/05/15 00:54:35;;;;;;;9.70;3.88;;;;;;;11.66;70.39;97987.53;5084618;28;20035;-59
2021/05/15 00:57:01;;;;;;;6.18;3.25;;;;;;;11.65;70.07;97981.56;5086905;28;20042;-61
2021/05/15 00:59:27;;;;;;;4.50;2.72;;;;;;;11.56;70.57;97992.13;5082761;28;20040;-61
2021/05/15 01:01:52;;;;;;;7.00;3.83;;;;;;;11.54;70.93;97999.06;5086330;28;20027;-61
2021/05/15 01:04:18;;;;;;;7.78;3.58;;;;;;;11.52;70.80;97990.53;5080593;28;20316;-61
2021/05/15 01:06:43;;;;;;;9.82;3.97;;;;;;;11.56;70.43;97986.16;5083235;28;20503;-61
2021/05/15 01:09:09;;;;;;;12.95;4.97;;;;;;;11.59;70.54;97991.16;5084748;28;20039;-61
2021/05/15 01:11:34;;;;;;;7.88;3.25;;;;;;;11.53;70.94;97989.66;5086120;28;20050;-61
2021/05/15 01:14:02;;;;;;;12.90;4.55;;;;;;;11.48;71.37;97988.13;5085766;28;20036;-61
2021/05/15 01:16:28;;;;;;;13.70;4.72;;;;;;;11.54;70.60;97986.22;5083634;28;20036;-61
2021/05/15 01:18:54;;;;;;;10.23;4.40;;;;;;;11.51;71.39;97988.03;5087763;28;20032;-61
2021/05/15 01:21:20;;;;;;;7.53;3.45;;;;;;;11.50;71.59;97989.75;5083986;28;20251;-62
2021/05/15 01:23:46;;;;;;;11.85;4.78;;;;;;;11.45;71.95;97986.50;5081399;28;20036;-61
2021/05/15 01:26:20;;;;;;;32.63;30.58;;;;;;;11.45;72.18;97984.78;5082796;28;20361;-61
2021/05/15 01:28:48;;;;;;;12.27;6.13;;;;;;;11.46;72.01;97990.72;5083908;28;20032;-61
2021/05/15 01:31:14;;;;;;;10.90;5.03;;;;;;;11.41;72.41;97990.06;5083006;28;20028;-61
2021/05/15 01:33:40;;;;;;;12.68;4.43;;;;;;;11.41;72.33;97988.31;5085488;28;20272;-62
2021/05/15 01:36:07;;;;;;;11.23;3.60;;;;;;;11.50;71.31;97986.38;5083057;28;20063;-61
2021/05/15 01:38:33;;;;;;;11.93;4.47;;;;;;;11.54;71.37;97980.25;5082518;28;20055;-61
2021/05/15 01:41:10;;;;;;;9.05;5.53;;;;;;;11.51;71.57;97985.44;5085267;28;20353;-61
2021/05/15 01:43:36;;;;;;;300.43;268.07;;;;;;;11.52;71.48;97984.56;5082100;28;20020;-59
2021/05/15 01:46:03;;;;;;;145.77;138.70;;;;;;;11.50;71.98;97987.19;5083183;28;20313;-61
2021/05/15 01:48:29;;;;;;;467.77;427.30;;;;;;;11.43;72.31;97988.28;5083052;28;20036;-60
2021/05/15 01:51:08;;;;;;;11.30;5.00;;;;;;;11.55;71.54;97987.03;5084366;28;20090;-61
2021/05/15 01:53:36;;;;;;;9.55;3.97;;;;;;;11.56;71.24;97987.00;5088191;28;20029;-61
2021/05/15 01:56:04;;;;;;;13.00;5.22;;;;;;;11.52;71.57;97987.97;5078679;28;20039;-60
2021/05/15 01:58:29;;;;;;;9.07;3.75;;;;;;;11.49;71.41;97992.38;5082469;28;20032;-61
2021/05/15 02:00:55;;;;;;;11.18;4.53;;;;;;;11.45;71.86;97989.09;5080668;28;20039;-61
2021/05/15 02:03:22;;;;;;;14.98;5.68;;;;;;;11.52;70.96;97987.13;5082165;28;20711;-61
2021/05/15 02:05:52;;;;;;;12.52;4.93;;;;;;;11.59;71.00;97978.34;5084763;28;20028;-61
2021/05/15 02:08:18;;;;;;;13.23;4.63;;;;;;;11.44;71.16;97990.81;5081331;28;20028;-61
2021/05/15 02:10:44;;;;;;;11.80;4.40;;;;;;;11.38;71.56;97982.44;5084063;28;20061;-60
2021/05/15 02:13:10;;;;;;;12.00;4.47;;;;;;;11.38;71.67;97985.84;5083748;28;20028;-60
2021/05/15 02:15:36;;;;;;;9.68;4.05;;;;;;;11.33;71.73;97984.34;5084627;28;20078;-61
2021/05/15 02:18:06;;;;;;;10.55;3.92;;;;;;;11.33;72.07;97989.47;5085639;28;20255;-60
2021/05/15 02:20:32;;;;;;;11.63;4.78;;;;;;;11.41;71.24;97974.66;5080604;28;20032;-60
2021/05/15 02:22:58;;;;;;;11.30;4.43;;;;;;;11.44;71.10;97977.97;5082483;28;20110;-61
2021/05/15 02:25:25;;;;;;;9.80;3.75;;;;;;;11.58;70.19;97972.38;5082507;28;20379;-61
2021/05/15 02:27:51;;;;;;;10.85;4.25;;;;;;;11.56;70.29;97974.16;5084655;28;20081;-60
2021/05/15 02:30:18;;;;;;;13.27;4.43;;;;;;;11.65;69.39;97976.41;5081633;28;20028;-61
2021/05/15 02:32:44;;;;;;;10.50;3.80;;;;;;;11.65;69.33;97975.56;5081913;28;20028;-60
2021/05/15 02:35:09;;;;;;;9.00;3.50;;;;;;;11.73;68.97;97978.75;5079202;28;20024;-60
2021/05/15 02:37:35;;;;;;;11.27;4.10;;;;;;;11.76;68.22;97971.78;5081171;28;20051;-60
2021/05/15 02:40:01;;;;;;;11.52;4.68;;;;;;;11.74;68.45;97972.72;5084686;28;20028;-60
2021/05/15 02:42:26;;;;;;;7.47;3.05;;;;;;;11.72;69.27;97970.19;5086120;28;20025;-60
2021/05/15 02:44:52;;;;;;;10.18;4.05;;;;;;;11.58;69.85;97967.25;5090468;28;20037;-60
2021/05/15 02:47:20;;;;;;;8.07;3.30;;;;;;;11.61;69.77;97964.56;5096213;28;20070;-61
2021/05/15 02:49:46;;;;;;;11.55;4.15;;;;;;;11.50;70.02;97969.22;5081426;28;20036;-60
2021/05/15 02:52:11;;;;;;;8.15;3.33;;;;;;;11.51;70.09;97963.19;5085247;28;20047;-61
2021/05/15 02:54:37;;;;;;;7.03;2.75;;;;;;;11.43;70.67;97965.19;5080177;28;20055;-60
2021/05/15 02:57:03;;;;;;;12.00;4.60;;;;;;;11.47;71.12;97977.03;5082778;28;20266;-61
2021/05/15 02:59:28;;;;;;;8.90;3.50;;;;;;;11.45;71.24;97971.13;5085491;28;20028;-60
2021/05/15 03:01:53;;;;;;;9.80;3.83;;;;;;;11.42;70.31;97968.63;5082470;28;20384;-60
2021/05/15 03:04:19;;;;;;;11.38;3.92;;;;;;;11.49;70.67;97975.25;5082857;28;20024;-60
2021/05/15 03:06:44;;;;;;;11.07;4.18;;;;;;;11.50;71.01;97978.66;5083706;28;20387;-60
2021/05/15 03:09:10;;;;;;;11.88;4.60;;;;;;;11.51;71.08;97976.03;5086162;28;20043;-59
2021/05/15 03:11:35;;;;;;;10.93;4.28;;;;;;;11.49;71.02;97980.38;5091704;28;20035;-60
2021/05/15 03:14:01;;;;;;;9.23;3.70;;;;;;;11.45;71.66;97979.66;5093087;28;20050;-60
2021/05/15 03:16:26;;;;;;;8.63;3.95;;;;;;;11.45;72.10;97981.38;5087821;28;20032;-60
2021/05/15 03:18:52;;;;;;;9.38;4.03;;;;;;;11.49;71.57;97979.53;5093841;28;20155;-60
2021/05/15 03:21:17;;;;;;;11.68;4.80;;;;;;;11.48;71.11;97985.56;5086321;28;20398;-62
2021/05/15 03:23:42;;;;;;;9.98;4.22;;;;;;;11.46;70.89;97993.31;5086448;28;20032;-61
2021/05/15 03:26:08;;;;;;;9.30;4.03;;;;;;;11.45;71.13;97986.50;5086569;28;20049;-61
2021/05/15 03:28:33;;;;;;;6.45;3.08;;;;;;;11.45;70.93;97983.94;5086559;28;20396;-60
2021/05/15 03:30:59;;;;;;;8.07;3.35;;;;;;;11.44;70.63;97987.41;5086073;28;20028;-61
2021/05/15 03:33:24;;;;;;;9.13;3.80;;;;;;;11.49;70.89;97984.69;5086223;28;20090;-61
2021/05/15 03:35:50;;;;;;;7.80;3.17;;;;;;;11.48;70.50;97988.97;5085573;28;20037;-61
2021/05/15 03:38:15;;;;;;;8.88;3.70;;;;;;;11.50;70.75;97986.38;5087222;28;20029;-60
2021/05/15 03:40:40;;;;;;;8.65;3.72;;;;;;;11.50;70.28;97997.44;5085535;28;20097;-61
2021/05/15 03:43:06;;;;;;;10.00;4.07;;;;;;;11.53;70.11;97993.97;5091092;28;20043;-61
2021/05/15 03:45:31;;;;;;;8.32;3.88;;;;;;;11.46;70.70;97993.31;5086854;28;20020;-60
2021/05/15 03:47:57;;;;;;;6.57;3.08;;;;;;;11.48;70.78;97991.53;5088877;28;20027;-60
2021/05/15 03:50:22;;;;;;;6.28;3.25;;;;;;;11.51;70.96;97998.28;5087832;28;20078;-60
2021/05/15 03:52:49;;;;;;;8.05;3.65;;;;;;;11.54;70.78;98004.19;5087515;28;20023;-61
2021/05/15 03:55:15;;;;;;;7.47;3.28;;;;;;;11.52;71.32;98002.53;5086182;28;20041;-60
2021/05/15 03:57:40;;;;;;;8.18;3.50;;;;;;;11.53;71.20;98011.94;5087134;28;20302;-60
2021/05/15 04:00:08;;;;;;;10.38;4.03;;;;;;;11.56;70.84;98009.25;5084497;28;20066;-60
2021/05/15 04:02:34;;;;;;;8.23;3.50;;;;;;;11.57;71.06;98009.22;5084780;28;20032;-60
2021/05/15 04:04:59;;;;;;;8.23;4.35;;;;;;;11.61;71.13;98015.06;5084905;28;20032;-61
2021/05/15 04:07:24;;;;;;;9.48;4.07;;;;;;;11.65;70.74;98016.66;5087435;28;20027;-61
2021/05/15 04:09:50;;;;;;;6.75;3.38;;;;;;;11.68;71.20;98014.81;5082319;28;20060;-60
2021/05/15 04:12:16;;;;;;;9.07;4.32;;;;;;;11.71;70.73;98022.41;5084976;28;20068;-60
2021/05/15 04:19:34;;;;;;;8.40;3.60;;;;;;;11.83;71.46;98023.78;5084484;28;20066;-61
2021/05/15 04:22:00;;;;;;;8.32;4.63;;;;;;;11.87;72.27;98022.78;5083957;28;20114;-61
2021/05/15 04:24:26;;;;;;;7.82;3.75;;;;;;;11.94;71.89;98029.38;5083949;28;20105;-61
2021/05/15 04:26:53;;;;;;;6.80;3.47;;;;;;;11.88;72.34;98027.84;5086525;28;20020;-61
2021/05/15 04:29:22;;;;;;;8.25;3.53;;;;;;;11.88;72.83;98033.00;5084474;28;20031;-61
2021/05/15 04:31:49;;;;;;;7.95;3.65;;;;;;;11.90;73.02;98033.78;5086307;28;20059;-61
2021/05/15 04:34:14;;;;;;;9.98;4.57;;;;;;;11.95;72.97;98031.06;5093863;28;20081;-61
2021/05/15 04:36:40;;;;;;;9.43;3.85;;;;;;;12.02;72.65;98036.81;5085015;28;20032;-61
2021/05/15 04:39:07;;;;;;;9.20;4.47;;;;;;;12.03;72.51;98031.66;5088187;28;20040;-60
2021/05/15 04:41:32;;;;;;;8.65;3.72;;;;;;;12.05;72.80;98026.47;5102631;28;20020;-60
2021/05/15 04:43:58;;;;;;;9.93;4.72;;;;;;;12.12;72.69;98027.91;5085401;28;20028;-60
2021/05/15 04:46:23;;;;;;;9.43;4.78;;;;;;;12.13;71.45;98029.59;5086124;28;20289;-61
2021/05/15 04:48:48;;;;;;;8.55;4.40;;;;;;;12.19;70.68;98027.66;5083026;28;20044;-60
2021/05/15 04:51:14;;;;;;;8.13;4.28;;;;;;;12.25;70.77;98032.59;5084792;28;20187;-60
2021/05/15 04:53:39;;;;;;;9.05;4.50;;;;;;;12.36;69.36;98027.88;5084919;28;20029;-60
2021/05/15 04:56:08;;;;;;;7.43;3.78;;;;;;;12.49;68.16;98028.28;5086646;28;20039;-60
2021/05/15 04:58:34;;;;;;;8.00;3.85;;;;;;;12.54;67.92;98030.69;5084801;28;20366;-60
2021/05/15 05:00:59;;;;;;;7.40;3.67;;;;;;;12.54;68.10;98034.09;5084933;28;20028;-60
2021/05/15 05:03:24;;;;;;;9.43;3.70;;;;;;;12.49;68.63;98028.28;5082375;28;20036;-60
2021/05/15 05:05:50;;;;;;;8.45;4.10;;;;;;;12.34;69.31;98028.84;5082907;28;20028;-60
2021/05/15 05:08:16;;;;;;;8.65;4.32;;;;;;;12.34;69.32;98029.69;5085231;28;20107;-60
2021/05/15 05:10:41;;;;;;;8.88;4.07;;;;;;;12.21;69.13;98030.16;5084335;28;20185;-60
2021/05/15 05:13:07;;;;;;;7.38;3.53;;;;;;;12.21;69.14;98032.75;5084747;28;20032;-60
2021/05/15 05:15:32;;;;;;;6.90;3.90;;;;;;;12.16;70.08;98032.91;5083797;28;20066;-60
2021/05/15 05:17:58;;;;;;;8.23;3.95;;;;;;;12.36;69.72;98034.75;5084109;28;20031;-60
2021/05/15 05:20:23;;;;;;;7.30;3.60;;;;;;;12.42;69.80;98036.28;5081845;28;20070;-60
2021/05/15 05:22:52;;;;;;;9.77;4.43;;;;;;;12.46;69.22;98030.97;5086667;28;20047;-60
2021/05/15 05:25:18;;;;;;;6.28;3.40;;;;;;;12.67;68.93;98034.50;5093172;28;20056;-60
2021/05/15 05:27:47;;;;;;;6.97;3.58;;;;;;;12.81;68.56;98037.41;5085881;28;20144;-61
2021/05/15 05:30:17;;;;;;;7.45;3.63;;;;;;;12.97;68.13;98029.94;5081388;28;20028;-60
2021/05/15 05:32:44;;;;;;;6.30;3.28;;;;;;;13.03;67.76;98035.66;5082719;28;20407;-60
2021/05/15 05:35:12;;;;;;;6.22;3.28;;;;;;;13.21;67.08;98037.56;5085714;28;20036;-62
2021/05/15 05:37:38;;;;;;;6.82;4.03;;;;;;;13.27;66.81;98039.09;5084443;28;20344;-62
2021/05/15 05:40:06;;;;;;;6.13;3.58;;;;;;;13.39;66.91;98035.19;5081668;28;20147;-62
2021/05/15 05:42:31;;;;;;;6.78;3.75;;;;;;;13.52;66.78;98031.22;5083798;28;20027;-62
2021/05/15 05:44:57;;;;;;;6.10;3.55;;;;;;;13.61;66.17;98044.56;5083270;28;20086;-61
2021/05/15 05:47:22;;;;;;;7.85;3.85;;;;;;;13.54;66.40;98029.41;5083098;28;20318;-61
2021/05/15 05:49:48;;;;;;;6.85;3.63;;;;;;;13.67;65.78;98039.16;5083545;28;20115;-62
2021/05/15 05:52:14;;;;;;;7.45;4.00;;;;;;;13.74;65.82;98037.19;5080506;28;20032;-62
2021/05/15 05:54:40;;;;;;;8.68;3.97;;;;;;;13.67;66.01;98041.72;5082136;28;20582;-61
2021/05/15 05:57:06;;;;;;;12.68;4.60;;;;;;;13.77;65.05;98036.19;5084532;28;20349;-61
2021/05/15 05:59:31;;;;;;;9.68;4.47;;;;;;;13.78;64.93;98043.03;5081190;28;20377;-61
2021/05/15 06:01:57;;;;;;;6.90;3.83;;;;;;;13.72;65.09;98044.13;5083546;28;20032;-61
2021/05/15 06:04:22;;;;;;;5.50;3.35;;;;;;;13.91;64.93;98046.78;5083113;28;20052;-61
2021/05/15 06:06:47;;;;;;;6.15;3.42;;;;;;;14.04;64.41;98042.78;5083236;28;20032;-61
2021/05/15 06:09:15;;;;;;;11.15;5.10;;;;;;;14.17;64.30;98043.94;5082950;28;20082;-61
2021/05/15 06:11:40;;;;;;;6.60;3.85;;;;;;;14.22;64.24;98043.72;5084795;28;20031;-62
2021/05/15 06:14:05;;;;;;;7.63;4.20;;;;;;;14.26;64.46;98042.72;5080751;28;20104;-61
2021/05/15 06:16:31;;;;;;;13.00;5.40;;;;;;;14.23;64.48;98046.25;5082629;28;20028;-61
2021/05/15 06:18:56;;;;;;;7.28;3.17;;;;;;;14.26;63.10;98048.69;5084282;28;20032;-61
2021/05/15 06:21:22;;;;;;;7.07;4.10;;;;;;;14.21;63.55;98050.66;5082276;28;20111;-62
2021/05/15 06:23:47;;;;;;;6.35;3.45;;;;;;;14.26;63.20;98051.25;5080873;28;20396;-62
2021/05/15 06:26:12;;;;;;;8.00;3.88;;;;;;;14.25;62.68;98052.19;5082614;28;20032;-62
2021/05/15 06:28:38;;;;;;;8.02;3.85;;;;;;;14.24;63.44;98055.66;5084685;28;20388;-62
2021/05/15 06:31:05;;;;;;;9.38;4.75;;;;;;;14.28;63.96;98062.38;5081823;28;20047;-62
2021/05/15 06:33:31;;;;;;;5.88;3.53;;;;;;;14.25;64.16;98057.34;5082964;28;20255;-61
2021/05/15 06:35:57;;;;;;;6.03;3.17;;;;;;;14.27;64.54;98060.69;5081389;28;20297;-61
2021/05/15 06:38:23;;;;;;;6.68;3.50;;;;;;;14.52;63.73;98060.47;5083046;28;20035;-61
2021/05/15 06:40:48;;;;;;;5.63;3.17;;;;;;;14.72;63.87;98063.03;5082701;28;20332;-60
2021/05/15 06:43:14;;;;;;;7.95;4.13;;;;;;;14.84;63.81;98053.91;5086770;28;20048;-60
2021/05/15 06:45:39;;;;;;;8.50;4.38;;;;;;;15.00;63.42;98063.47;5085267;28;20032;-61
2021/05/15 06:48:05;;;;;;;8.60;4.43;;;;;;;15.16;62.78;98048.09;5084912;28;20032;-61
2021/05/15 06:50:31;;;;;;;5.80;3.47;;;;;;;15.34;62.16;98054.13;5087172;28;20036;-62
2021/05/15 06:52:56;;;;;;;660.50;612.83;;;;;;;15.25;63.18;98060.56;5090416;28;20040;-63
2021/05/15 06:55:23;;;;;;;704.33;651.53;;;;;;;15.22;63.63;98058.16;5083440;28;20048;-61
2021/05/15 06:57:49;;;;;;;725.63;665.67;;;;;;;15.41;63.63;98058.94;5085808;28;20120;-61
2021/05/15 07:00:15;;;;;;;736.78;676.08;;;;;;;15.63;62.55;98058.78;5083813;28;20169;-61
2021/05/15 07:02:41;;;;;;;6.53;3.75;;;;;;;15.76;62.56;98064.19;5087216;28;20028;-61
2021/05/15 07:05:07;;;;;;;6.60;3.58;;;;;;;15.96;60.79;98057.13;5083151;28;20399;-61
2021/05/15 07:07:33;;;;;;;7.85;3.90;;;;;;;16.03;60.62;98062.84;5086278;28;20024;-61
2021/05/15 07:09:58;;;;;;;6.05;3.30;;;;;;;16.09;60.65;98065.09;5086995;28;20067;-61
2021/05/15 07:12:24;;;;;;;8.90;4.70;;;;;;;16.19;60.61;98061.16;5086102;28;20040;-61
2021/05/15 07:14:51;;;;;;;6.20;3.78;;;;;;;16.22;59.35;98068.75;5085126;28;20413;-61
2021/05/15 07:17:16;;;;;;;9.45;4.47;;;;;;;16.25;60.06;98062.59;5084000;28;20434;-61
2021/05/15 07:19:41;;;;;;;10.20;4.88;;;;;;;16.21;60.08;98066.25;5083436;28;20028;-62
2021/05/15 07:22:07;;;;;;;6.85;3.67;;;;;;;16.08;60.04;98068.63;5081705;28;20369;-61
2021/05/15 07:24:32;;;;;;;8.20;4.40;;;;;;;15.82;60.41;98069.06;5083127;28;20114;-61
2021/05/15 07:26:58;;;;;;;6.05;3.83;;;;;;;15.99;59.56;98069.91;5084903;28;20045;-60
2021/05/15 07:29:23;;;;;;;8.57;4.78;;;;;;;16.23;58.65;98077.34;5086400;28;20032;-61
2021/05/15 07:31:49;;;;;;;10.32;5.40;;;;;;;16.21;59.33;98069.66;5084346;28;20032;-61
2021/05/15 07:34:14;;;;;;;7.45;4.35;;;;;;;16.37;59.14;98072.31;5086457;28;20042;-61
2021/05/15 07:36:40;;;;;;;6.38;3.75;;;;;;;16.38;58.26;98064.47;5084930;28;20047;-61
2021/05/15 07:39:05;;;;;;;6.60;3.47;;;;;;;16.41;58.52;98079.00;5084480;28;20044;-62
2021/05/15 07:41:31;;;;;;;5.15;3.25;;;;;;;16.39;58.03;98079.06;5082817;28;20309;-62
2021/05/15 07:43:56;;;;;;;7.30;4.38;;;;;;;16.51;57.57;98085.38;5080596;28;20032;-62
2021/05/15 07:46:22;;;;;;;6.13;4.32;;;;;;;16.72;58.06;98084.28;5084451;28;20040;-62
2021/05/15 07:48:47;;;;;;;10.85;5.57;;;;;;;16.71;57.28;98089.56;5080991;28;20038;-63
2021/05/15 07:51:20;;;;;;;9.07;5.18;;;;;;;16.77;56.49;98097.81;5081211;28;20076;-62
2021/05/15 07:53:50;;;;;;;10.48;5.75;;;;;;;16.93;56.14;98089.28;5081703;28;20174;-62
2021/05/15 07:56:16;;;;;;;6.80;4.05;;;;;;;16.95;56.54;98090.00;5091684;28;20393;-62
2021/05/15 07:58:42;;;;;;;7.85;4.43;;;;;;;17.21;55.47;98098.06;5086330;28;20040;-61
2021/05/15 08:01:07;;;;;;;7.95;5.03;;;;;;;17.38;54.79;98094.56;5081297;28;20032;-62
2021/05/15 08:03:33;;;;;;;7.38;4.38;;;;;;;17.52;54.71;98092.03;5080840;28;20404;-62
2021/05/15 08:05:58;;;;;;;6.82;3.75;;;;;;;17.70;53.68;98097.97;5081009;28;20294;-62
2021/05/15 08:08:24;;;;;;;5.20;3.83;;;;;;;17.62;53.56;98101.00;5082984;28;20028;-62
2021/05/15 08:10:50;;;;;;;4.07;3.33;;;;;;;17.76;53.18;98093.28;5085231;28;20052;-62
2021/05/15 08:13:16;;;;;;;7.57;3.90;;;;;;;17.75;53.87;98103.72;5080296;28;20563;-62
2021/05/15 08:15:41;;;;;;;6.90;4.57;;;;;;;18.01;52.71;98099.66;5086831;28;20031;-62
2021/05/15 08:18:07;;;;;;;7.82;4.47;;;;;;;18.04;53.52;98102.06;5087540;28;20115;-62
2021/05/15 08:20:33;;;;;;;6.80;4.53;;;;;;;18.04;54.35;98107.25;5091661;28;20103;-62
2021/05/15 08:22:59;;;;;;;6.32;4.35;;;;;;;18.17;54.15;98103.88;5085835;28;20062;-61
2021/05/15 08:25:25;;;;;;;6.65;4.35;;;;;;;18.28;53.97;98100.69;5082234;28;20178;-61
2021/05/15 08:27:54;;;;;;;6.70;4.20;;;;;;;18.13;51.81;98102.38;5083884;28;20058;-61
2021/05/15 08:30:21;;;;;;;4.45;3.65;;;;;;;18.08;51.13;98106.16;5085513;28;20311;-60
2021/05/15 08:32:52;;;;;;;4.97;3.78;;;;;;;18.08;51.29;98106.16;5083725;28;20042;-60
2021/05/15 08:35:19;;;;;;;5.22;4.18;;;;;;;18.02;51.69;98112.56;5084295;28;20028;-61
2021/05/15 08:37:45;;;;;;;5.45;3.42;;;;;;;18.03;52.07;98113.41;5084644;28;20028;-61
2021/05/15 08:40:12;;;;;;;5.18;3.80;;;;;;;17.96;52.22;98112.06;5083023;28;20029;-61
2021/05/15 08:42:40;;;;;;;4.10;3.30;;;;;;;17.90;52.99;98115.00;5083124;28;20027;-61
2021/05/15 08:45:07;;;;;;;6.68;4.55;;;;;;;17.94;53.59;98113.91;5083990;28;20013;-60
2021/05/15 08:47:37;;;;;;;8.20;4.95;;;;;;;17.49;54.80;98114.69;5083329;28;20089;-62
2021/05/15 08:50:09;;;;;;;5.85;3.85;;;;;;;17.73;54.68;98110.78;5084629;28;20033;-61
2021/05/15 08:52:40;;;;;;;4.35;3.67;;;;;;;18.02;54.33;98112.56;5083172;28;20032;-61
2021/05/15 08:55:08;;;;;;;9.43;5.43;;;;;;;18.03;53.58;98111.63;5083958;28;20032;-60
2021/05/15 08:57:34;;;;;;;7.07;4.97;;;;;;;18.03;53.34;98109.03;5083058;28;20351;-62
2021/05/15 09:00:09;;;;;;;5.65;4.53;;;;;;;18.06;53.25;98108.03;5081367;28;20099;-61
2021/05/15 09:02:35;;;;;;;5.60;4.17;;;;;;;18.23;53.31;98111.31;5091505;28;20127;-61
2021/05/15 09:05:00;;;;;;;5.60;3.67;;;;;;;18.14;54.35;98106.66;5083193;28;20033;-61
2021/05/15 09:07:26;;;;;;;7.00;4.65;;;;;;;18.23;56.04;98111.31;5081425;28;20098;-62
2021/05/15 09:09:51;;;;;;;5.88;3.58;;;;;;;18.35;56.04;98103.72;5082132;28;20341;-62
2021/05/15 09:12:17;;;;;;;5.15;3.65;;;;;;;18.34;54.79;98118.47;5082663;28;20028;-63
2021/05/15 09:14:43;;;;;;;6.07;3.55;;;;;;;18.35;55.31;98117.53;5080553;28;20366;-63
2021/05/15 09:17:08;;;;;;;7.50;3.78;;;;;;;18.32;54.28;98125.53;5097828;28;20273;-62
2021/05/15 09:19:33;;;;;;;5.72;3.10;;;;;;;18.26;53.20;98115.47;5082610;28;20028;-63
2021/05/15 09:22:05;;;;;;;10.63;4.57;;;;;;;18.12;53.23;98120.66;5081509;28;20029;-62
2021/05/15 09:24:33;;;;;;;885.97;819.70;;;;;;;18.05;52.15;98109.78;5082216;28;20027;-62
2021/05/15 09:27:01;;;;;;;5.30;3.08;;;;;;;18.13;52.23;98115.34;5082773;28;20261;-63
2021/05/15 09:29:27;;;;;;;2.53;2.10;;;;;;;17.91;52.70;98112.31;5081634;28;20127;-61
2021/05/15 09:31:52;;;;;;;7.85;4.03;;;;;;;17.90;53.35;98112.41;5084094;28;20404;-63
2021/05/15 09:34:18;;;;;;;4.28;2.75;;;;;;;17.56;53.54;98114.28;5082624;28;20033;-62
2021/05/15 09:36:46;;;;;;;6.43;3.60;;;;;;;17.34;54.66;98118.97;5084083;28;20266;-62
2021/05/15 09:39:22;;;;;;;3.28;2.70;;;;;;;16.87;56.27;98116.31;5079705;28;20284;-62
2021/05/15 09:41:57;;;;;;;4.90;3.17;;;;;;;16.85;56.27;98120.72;5082965;28;20077;-62
2021/05/15 09:44:28;;;;;;;3.90;2.72;;;;;;;16.90;55.88;98114.41;5084311;28;20019;-62
2021/05/15 09:46:55;;;;;;;5.05;2.95;;;;;;;16.96;56.00;98121.00;5084228;28;20285;-63
2021/05/15 09:49:23;;;;;;;5.25;3.03;;;;;;;16.84;56.45;98121.66;5082727;28;20020;-63
2021/05/15 09:51:52;;;;;;;10.20;5.00;;;;;;;16.94;56.54;98115.06;5081623;28;20027;-63
2021/05/15 09:54:22;;;;;;;4.78;2.78;;;;;;;16.74;57.95;98121.28;5083874;28;20588;-63
2021/05/15 09:57:17;;;;;;;6.40;3.40;;;;;;;17.16;56.60;98120.78;5082631;28;20012;-63
2021/05/15 09:59:45;;;;;;;5.97;3.40;;;;;;;17.13;55.74;98110.59;5080559;28;20496;-62
2021/05/15 10:02:15;;;;;;;8.82;4.35;;;;;;;17.27;56.37;98112.44;5084022;28;20350;-62
2021/05/15 10:04:42;;;;;;;6.05;3.47;;;;;;;17.21;56.99;98107.59;5083303;28;20024;-61
2021/05/15 10:07:24;;;;;;;8.88;4.63;;;;;;;17.48;56.96;98115.63;5087793;28;20024;-61
2021/05/15 10:09:49;;;;;;;8.45;4.45;;;;;;;17.53;57.17;98103.22;5085224;28;20471;-61
2021/05/15 10:12:15;;;;;;;5.80;3.47;;;;;;;17.71;57.96;98107.41;5085422;28;20025;-61
2021/05/15 10:14:41;;;;;;;7.30;3.67;;;;;;;18.08;55.14;98101.81;5084383;28;20044;-61
2021/05/15 10:17:07;;;;;;;6.70;3.90;;;;;;;18.40;54.21;98093.91;5101534;28;20027;-62
2021/05/15 10:19:33;;;;;;;6.65;3.60;;;;;;;18.29;52.62;98099.72;5081905;28;20277;-62
2021/05/15 10:21:59;;;;;;;13.23;5.97;;;;;;;18.51;52.85;98091.50;5081897;28;20020;-62
2021/05/15 10:24:28;;;;;;;4.95;3.15;;;;;;;18.57;52.61;98094.63;5081293;28;20027;-62
2021/05/15 10:26:59;;;;;;;7.88;3.95;;;;;;;18.80;51.49;98088.03;5082833;28;20076;-62
2021/05/15 10:29:35;;;;;;;7.65;3.97;;;;;;;18.82;53.28;98090.53;5084196;28;20035;-63
2021/05/15 10:32:01;;;;;;;4.70;3.22;;;;;;;18.81;53.26;98087.09;5083116;28;20032;-63
2021/05/15 10:34:34;;;;;;;5.75;3.63;;;;;;;18.42;54.88;98079.91;5084350;28;20366;-63
2021/05/15 10:37:01;;;;;;;33.95;31.98;;;;;;;18.73;55.59;98081.53;5083450;28;20032;-62
2021/05/15 10:39:33;;;;;;;6.13;3.47;;;;;;;18.95;55.96;98076.72;5082060;28;20035;-63
2021/05/15 10:42:03;;;;;;;4.65;2.92;;;;;;;19.02;54.44;98075.41;5079911;28;20024;-63
2021/05/15 10:44:42;;;;;;;5.00;3.15;;;;;;;19.30;54.63;98078.88;5084354;28;20035;-63
2021/05/15 10:47:08;;;;;;;5.43;3.45;;;;;;;19.67;53.09;98069.59;5081540;28;20028;-63
2021/05/15 10:49:34;;;;;;;6.85;3.92;;;;;;;19.72;50.81;98063.19;5089767;28;20266;-63
2021/05/15 10:52:10;;;;;;;6.07;3.50;;;;;;;19.91;50.36;98063.63;5081872;28;20023;-63
2021/05/15 10:54:41;;;;;;;5.00;3.10;;;;;;;20.41;49.34;98046.44;5083674;28;20111;-63
2021/05/15 10:57:08;;;;;;;4.22;2.75;;;;;;;20.30;46.35;98044.56;5086236;28;20059;-67
2021/05/15 10:59:35;;;;;;;8.07;4.10;;;;;;;20.13;47.08;98041.38;5086649;28;20387;-63
2021/05/15 11:02:05;;;;;;;6.47;3.70;;;;;;;20.08;47.89;98034.72;5085010;28;20036;-63
2021/05/15 11:04:32;;;;;;;5.55;3.17;;;;;;;19.76;48.05;98023.03;5083384;28;20052;-63
2021/05/15 11:07:05;;;;;;;6.43;3.13;;;;;;;19.49;48.83;98017.00;5083874;28;20117;-63
2021/05/15 11:09:33;;;;;;;5.32;2.95;;;;;;;19.32;49.64;98012.03;5083552;28;20438;-63
2021/05/15 11:12:13;;;;;;;4.00;2.40;;;;;;;18.85;47.18;98010.66;5084348;28;20032;-64
2021/05/15 11:14:42;;;;;;;11.18;6.18;;;;;;;18.82;47.54;98003.06;5082730;28;20024;-63
2021/05/15 11:17:20;;;;;;;7.90;7.07;;;;;;;18.92;47.74;98000.75;5101613;28;20032;-63
2021/05/15 11:20:07;;;;;;;50.05;47.22;;;;;;;19.05;48.51;98005.03;5084908;28;20032;-63
2021/05/15 11:22:43;;;;;;;930.35;862.65;;;;;;;18.93;46.57;97992.84;5082695;28;20032;-64
2021/05/15 11:25:14;;;;;;;6.43;2.45;;;;;;;18.67;48.89;97985.84;5082786;28;20077;-63
2021/05/15 11:28:04;;;;;;;5.95;3.25;;;;;;;19.04;49.80;97994.78;5083503;28;20020;-63
2021/05/15 11:30:32;;;;;;;4.65;2.97;;;;;;;19.25;47.46;97993.41;5085132;28;20133;-62
2021/05/15 11:32:59;;;;;;;6.40;2.90;;;;;;;19.30;48.25;97986.16;5089446;28;20020;-63